createdAt,value
2023-05-23T00:00:13.188Z,3.28
2023-05-23T00:02:05.015Z,3.70
2023-05-23T00:03:56.373Z,2.65
2023-05-23T00:05:47.659Z,3.53
2023-05-23T00:07:38.353Z,3.13
2023-05-23T00:09:29.190Z,3.10
2023-05-23T00:11:20.036Z,2.58
2023-05-23T00:13:11.651Z,3.22
2023-05-23T00:15:02.777Z,3.00
2023-05-23T00:16:53.659Z,2.72
2023-05-23T00:18:45.024Z,2.80
2023-05-23T00:20:38.615Z,2.97
2023-05-23T00:22:29.642Z,3.13
2023-05-23T00:24:20.858Z,2.60
2023-05-23T00:26:11.787Z,3.17
2023-05-23T00:28:04.410Z,3.13
2023-05-23T00:29:55.160Z,2.90
2023-05-23T00:31:47.950Z,2.80
2023-05-23T00:33:38.914Z,2.65
2023-05-23T00:35:29.811Z,2.65
2023-05-23T00:37:22.536Z,2.58
2023-05-23T00:39:14.077Z,2.30
2023-05-23T00:41:05.614Z,3.25
2023-05-23T00:42:56.751Z,2.95
2023-05-23T00:44:47.925Z,3.20
2023-05-23T00:46:39.026Z,3.10
2023-05-23T00:48:31.487Z,2.75
2023-05-23T00:50:22.460Z,3.13
2023-05-23T00:52:15.173Z,3.08
2023-05-23T00:54:07.333Z,3.38
2023-05-23T00:55:58.489Z,2.80
2023-05-23T00:57:49.356Z,3.50
2023-05-23T00:59:44.767Z,3.38
2023-05-23T01:01:43.635Z,3.33
2023-05-23T01:03:34.980Z,3.20
2023-05-23T01:05:26.170Z,3.60
2023-05-23T01:07:17.216Z,3.67
2023-05-23T01:09:08.758Z,3.90
2023-05-23T01:11:09.258Z,4.47
2023-05-23T01:13:34.533Z,3.80
2023-05-23T01:15:36.983Z,3.20
2023-05-23T01:17:55.432Z,4.28
2023-05-23T01:20:09.807Z,3.90
2023-05-23T01:22:11.937Z,4.00
2023-05-23T01:24:39.327Z,4.13
2023-05-23T01:26:52.248Z,4.00
2023-05-23T01:28:48.466Z,4.20
2023-05-23T01:30:45.129Z,4.40
2023-05-23T01:32:37.565Z,3.70
2023-05-23T01:34:32.125Z,4.50
2023-05-23T01:36:23.152Z,4.05
2023-05-23T01:38:14.171Z,4.20
2023-05-23T01:40:06.416Z,4.05
2023-05-23T01:41:57.672Z,4.07
2023-05-23T01:43:48.591Z,3.53
2023-05-23T01:45:40.981Z,4.28
2023-05-23T01:47:32.895Z,5.07
2023-05-23T01:49:25.342Z,3.30
2023-05-23T01:51:16.543Z,3.90
2023-05-23T01:53:10.345Z,3.75
2023-05-23T01:55:02.004Z,3.85
2023-05-23T01:56:54.682Z,4.05
2023-05-23T01:58:46.188Z,4.63
2023-05-23T02:00:37.890Z,4.25
2023-05-23T02:02:40.955Z,3.50
2023-05-23T02:04:32.759Z,3.88
2023-05-23T02:06:26.532Z,3.80
2023-05-23T02:08:17.559Z,3.80
2023-05-23T02:10:11.595Z,4.07
2023-05-23T02:12:02.192Z,4.25
2023-05-23T02:13:53.267Z,3.92
2023-05-23T02:15:44.257Z,4.70
2023-05-23T02:17:35.620Z,4.00
2023-05-23T02:19:26.555Z,4.15
2023-05-23T02:21:17.743Z,3.85
2023-05-23T02:23:11.510Z,4.07
2023-05-23T02:25:03.168Z,4.32
2023-05-23T02:26:54.476Z,4.35
2023-05-23T02:28:45.458Z,4.25
2023-05-23T02:30:36.541Z,4.07
2023-05-23T02:32:27.216Z,3.97
2023-05-23T02:34:18.274Z,4.40
2023-05-23T02:36:09.952Z,4.95
2023-05-23T02:38:03.066Z,4.07
2023-05-23T02:39:54.024Z,4.03
2023-05-23T02:41:45.450Z,4.22
2023-05-23T02:43:36.277Z,3.85
2023-05-23T02:45:28.131Z,4.60
2023-05-23T02:47:19.892Z,3.58
2023-05-23T02:49:11.279Z,4.03
2023-05-23T02:51:01.966Z,4.57
2023-05-23T02:52:52.859Z,4.05
2023-05-23T02:54:43.987Z,3.78
2023-05-23T02:56:35.159Z,4.32
2023-05-23T02:58:26.050Z,4.55
2023-05-23T03:00:18.189Z,4.90
2023-05-23T03:02:10.454Z,3.83
2023-05-23T03:04:01.154Z,4.18
2023-05-23T03:05:52.782Z,4.43
2023-05-23T03:07:43.565Z,4.25
2023-05-23T03:09:34.592Z,3.70
2023-05-23T03:11:26.202Z,4.50
2023-05-23T03:13:18.062Z,4.15
2023-05-23T03:15:10.598Z,4.20
2023-05-23T03:17:01.691Z,4.07
2023-05-23T03:18:52.705Z,4.45
2023-05-23T03:20:43.485Z,4.35
2023-05-23T03:22:34.527Z,3.85
2023-05-23T03:24:25.206Z,4.45
2023-05-23T03:26:16.270Z,3.83
2023-05-23T03:28:07.890Z,4.40
2023-05-23T03:29:58.738Z,4.60
2023-05-23T03:31:50.037Z,4.28
2023-05-23T03:33:41.055Z,4.10
2023-05-23T03:35:31.820Z,4.10
2023-05-23T03:37:22.721Z,3.97
2023-05-23T03:39:13.701Z,3.67
2023-05-23T03:41:04.829Z,4.45
2023-05-23T03:43:07.032Z,4.15
2023-05-23T03:44:58.317Z,7.82
2023-05-23T03:46:49.576Z,6.32
2023-05-23T03:48:41.139Z,4.00
2023-05-23T03:50:32.497Z,3.78
2023-05-23T03:52:23.849Z,3.83
2023-05-23T03:54:14.455Z,4.65
2023-05-23T03:56:06.002Z,4.90
2023-05-23T03:57:57.042Z,3.78
2023-05-23T03:59:48.025Z,3.60
2023-05-23T04:01:39.087Z,4.00
2023-05-23T04:03:30.752Z,4.72
2023-05-23T04:05:22.384Z,3.83
2023-05-23T04:07:13.406Z,3.53
2023-05-23T04:09:04.328Z,4.20
2023-05-23T04:10:55.230Z,3.63
2023-05-23T04:12:46.675Z,3.78
2023-05-23T04:14:37.255Z,3.28
2023-05-23T04:16:28.614Z,3.55
2023-05-23T04:18:20.040Z,4.47
2023-05-23T04:20:11.185Z,3.50
2023-05-23T04:22:02.161Z,3.70
2023-05-23T04:23:53.223Z,3.90
2023-05-23T04:25:44.264Z,3.70
2023-05-23T04:27:36.850Z,3.60
2023-05-23T04:29:29.095Z,3.15
2023-05-23T04:31:20.818Z,3.67
2023-05-23T04:33:11.990Z,3.38
2023-05-23T04:35:02.977Z,3.63
2023-05-23T04:36:54.174Z,3.45
2023-05-23T04:38:45.286Z,4.05
2023-05-23T04:40:36.616Z,3.42
2023-05-23T04:42:30.466Z,4.13
2023-05-23T04:44:21.407Z,3.80
2023-05-23T04:46:12.658Z,3.50
2023-05-23T04:48:04.580Z,3.15
2023-05-23T04:49:56.144Z,2.90
2023-05-23T04:51:47.312Z,3.47
2023-05-23T04:53:38.364Z,3.88
2023-05-23T04:55:29.429Z,3.80
2023-05-23T04:57:20.576Z,4.28
2023-05-23T04:59:11.560Z,3.65
2023-05-23T05:01:02.987Z,4.20
2023-05-23T05:02:54.112Z,3.45
2023-05-23T05:04:47.427Z,3.40
2023-05-23T05:06:38.342Z,3.88
2023-05-23T05:08:29.122Z,3.75
2023-05-23T05:10:21.093Z,4.60
2023-05-23T05:12:21.353Z,3.97
2023-05-23T05:14:12.324Z,3.45
2023-05-23T05:16:04.184Z,3.30
2023-05-23T05:17:54.835Z,4.07
2023-05-23T05:19:48.900Z,3.92
2023-05-23T05:21:40.054Z,3.38
2023-05-23T05:23:32.326Z,3.50
2023-05-23T05:25:23.299Z,3.67
2023-05-23T05:27:14.071Z,3.38
2023-05-23T05:29:05.215Z,4.07
2023-05-23T05:30:56.240Z,3.75
2023-05-23T05:32:47.213Z,3.30
2023-05-23T05:34:38.349Z,4.25
2023-05-23T05:36:29.450Z,3.67
2023-05-23T05:38:20.774Z,3.67
2023-05-23T05:40:12.369Z,3.42
2023-05-23T05:42:03.415Z,3.50
2023-05-23T05:43:54.250Z,3.55
2023-05-23T05:45:45.125Z,3.90
2023-05-23T05:47:36.542Z,3.92
2023-05-23T05:49:27.648Z,4.32
2023-05-23T05:51:18.882Z,4.25
2023-05-23T05:53:10.007Z,3.55
2023-05-23T05:55:01.580Z,3.80
2023-05-23T05:56:52.662Z,3.17
2023-05-23T05:58:44.022Z,3.75
2023-05-23T06:00:34.928Z,4.45
2023-05-23T06:02:26.362Z,4.45
2023-05-23T06:04:18.241Z,4.03
2023-05-23T06:06:09.266Z,3.90
2023-05-23T06:08:00.554Z,4.15
2023-05-23T06:09:51.718Z,4.03
2023-05-23T06:11:42.882Z,3.42
2023-05-23T06:13:41.443Z,3.42
2023-05-23T06:15:32.859Z,4.35
2023-05-23T06:17:23.801Z,4.15
2023-05-23T06:19:14.950Z,4.00
2023-05-23T06:22:46.859Z,4.15
2023-05-23T06:24:39.013Z,4.40
2023-05-23T06:26:31.739Z,3.10
2023-05-23T06:28:31.856Z,3.95
2023-05-23T06:30:23.479Z,3.42
2023-05-23T06:32:14.634Z,3.60
2023-05-23T06:34:05.336Z,3.72
2023-05-23T06:35:56.654Z,3.47
2023-05-23T06:37:47.833Z,4.13
2023-05-23T06:39:38.901Z,3.40
2023-05-23T06:41:30.393Z,3.38
2023-05-23T06:43:21.529Z,3.15
2023-05-23T06:45:14.966Z,3.38
2023-05-23T06:47:07.506Z,3.85
2023-05-23T06:49:10.757Z,3.60
2023-05-23T06:51:05.577Z,3.38
2023-05-23T06:52:56.433Z,3.08
2023-05-23T06:54:47.629Z,3.70
2023-05-23T06:56:38.952Z,3.63
2023-05-23T06:58:30.878Z,3.58
2023-05-23T07:00:22.762Z,3.42
2023-05-23T07:02:14.569Z,3.83
2023-05-23T07:04:06.082Z,4.05
2023-05-23T07:05:56.914Z,4.10
2023-05-23T07:07:51.414Z,3.60
2023-05-23T07:09:42.568Z,4.50
2023-05-23T07:11:33.625Z,3.60
2023-05-23T07:13:24.718Z,3.58
2023-05-23T07:15:15.917Z,3.60
2023-05-23T07:17:07.000Z,3.40
2023-05-23T07:18:57.801Z,3.50
2023-05-23T07:20:48.856Z,4.10
2023-05-23T07:22:40.274Z,3.63
2023-05-23T07:24:31.314Z,4.00
2023-05-23T07:26:21.963Z,4.25
2023-05-23T07:28:13.157Z,3.30
2023-05-23T07:30:04.760Z,3.60
2023-05-23T07:31:55.612Z,3.05
2023-05-23T07:33:46.772Z,3.80
2023-05-23T07:35:37.696Z,3.40
2023-05-23T07:37:28.894Z,4.20
2023-05-23T07:39:29.848Z,3.60
2023-05-23T07:41:20.991Z,2.90
2023-05-23T07:43:11.731Z,3.00
2023-05-23T07:45:02.983Z,2.83
2023-05-23T07:46:54.771Z,3.40
2023-05-23T07:48:46.127Z,3.17
2023-05-23T07:50:37.558Z,3.25
2023-05-23T07:52:32.379Z,3.00
2023-05-23T07:54:23.274Z,3.45
2023-05-23T07:56:14.267Z,3.30
2023-05-23T07:58:05.233Z,3.40
2023-05-23T07:59:56.394Z,3.15
2023-05-23T08:01:47.276Z,2.65
2023-05-23T08:03:38.565Z,3.35
2023-05-23T08:05:29.578Z,2.90
2023-05-23T08:07:21.036Z,2.90
2023-05-23T08:09:12.300Z,2.60
2023-05-23T08:11:04.024Z,2.90
2023-05-23T08:12:55.399Z,2.35
2023-05-23T08:14:51.337Z,3.50
2023-05-23T08:16:43.543Z,2.65
2023-05-23T08:18:34.431Z,2.63
2023-05-23T08:20:25.599Z,2.15
2023-05-23T08:22:16.412Z,2.22
2023-05-23T08:24:07.313Z,2.75
2023-05-23T08:25:58.487Z,2.78
2023-05-23T08:27:49.630Z,2.65
2023-05-23T08:29:41.122Z,2.50
2023-05-23T08:31:37.379Z,2.65
2023-05-23T08:33:28.484Z,2.88
2023-05-23T08:35:22.558Z,2.40
2023-05-23T08:37:13.944Z,2.95
2023-05-23T08:39:04.740Z,2.70
2023-05-23T08:41:01.792Z,2.28
2023-05-23T08:42:56.955Z,2.25
2023-05-23T08:44:49.976Z,2.38
2023-05-23T08:46:47.140Z,3.63
2023-05-23T08:48:39.911Z,1.73
2023-05-23T08:50:37.857Z,1.75
2023-05-23T08:52:33.391Z,2.70
2023-05-23T08:54:24.915Z,3.20
2023-05-23T08:56:16.730Z,2.90
2023-05-23T08:58:07.934Z,3.55
2023-05-23T09:00:00.783Z,3.33
2023-05-23T09:01:56.414Z,3.53
2023-05-23T09:03:49.388Z,2.80
2023-05-23T09:05:43.553Z,2.42
2023-05-23T09:07:35.128Z,2.90
2023-05-23T09:09:33.627Z,2.88
2023-05-23T09:11:25.850Z,2.55
2023-05-23T09:13:17.561Z,3.03
2023-05-23T09:15:08.833Z,2.85
2023-05-23T09:17:04.586Z,3.10
2023-05-23T09:18:55.831Z,2.90
2023-05-23T09:20:50.591Z,2.80
2023-05-23T09:22:46.241Z,2.90
2023-05-23T09:24:37.598Z,2.80
2023-05-23T09:26:28.929Z,3.45
2023-05-23T09:28:20.189Z,3.72
2023-05-23T09:30:15.612Z,3.13
2023-05-23T09:32:22.333Z,2.80
2023-05-23T09:34:13.535Z,2.45
2023-05-23T09:36:06.161Z,2.95
2023-05-23T09:37:58.752Z,2.90
2023-05-23T09:39:49.675Z,2.40
2023-05-23T09:41:43.321Z,3.25
2023-05-23T09:43:34.699Z,2.28
2023-05-23T09:45:31.728Z,2.38
2023-05-23T09:47:22.563Z,3.13
2023-05-23T09:49:17.898Z,2.97
2023-05-23T09:51:10.971Z,2.70
2023-05-23T09:53:02.454Z,2.75
2023-05-23T09:54:54.037Z,3.00
2023-05-23T09:56:49.614Z,2.95
2023-05-23T09:58:54.159Z,2.92
2023-05-23T10:00:49.857Z,2.88
2023-05-23T10:02:58.936Z,2.60
2023-05-23T10:04:52.481Z,2.53
2023-05-23T10:06:56.002Z,2.72
2023-05-23T10:08:57.199Z,2.63
2023-05-23T10:10:57.324Z,3.22
2023-05-23T10:12:55.578Z,2.78
2023-05-23T10:14:56.224Z,2.72
2023-05-23T10:17:03.918Z,2.80
2023-05-23T10:19:06.662Z,2.30
2023-05-23T10:21:09.706Z,2.42
2023-05-23T10:23:02.441Z,2.33
2023-05-23T10:24:54.368Z,2.55
2023-05-23T10:26:47.085Z,2.75
2023-05-23T10:28:39.448Z,2.15
2023-05-23T10:30:30.416Z,2.67
2023-05-23T10:32:21.937Z,2.38
2023-05-23T10:34:44.661Z,1.90
2023-05-23T10:36:55.766Z,2.50
2023-05-23T10:38:59.398Z,1.95
2023-05-23T10:41:02.572Z,2.92
2023-05-23T10:43:26.846Z,2.53
2023-05-23T10:45:27.117Z,2.65
2023-05-23T10:47:31.247Z,2.63
2023-05-23T10:49:37.196Z,2.47
2023-05-23T10:51:39.265Z,2.58
2023-05-23T10:53:31.649Z,2.72
2023-05-23T10:55:22.915Z,2.22
2023-05-23T10:57:19.107Z,2.00
2023-05-23T10:59:23.611Z,2.35
2023-05-23T11:01:16.570Z,2.28
2023-05-23T11:03:09.521Z,2.38
2023-05-23T11:05:24.004Z,2.58
2023-05-23T11:07:32.679Z,2.97
2023-05-23T11:09:24.787Z,2.58
2023-05-23T11:11:16.614Z,2.15
2023-05-23T11:13:07.871Z,2.05
2023-05-23T11:14:58.722Z,2.05
2023-05-23T11:16:49.849Z,2.30
2023-05-23T11:18:40.935Z,2.55
2023-05-23T11:20:33.526Z,2.90
2023-05-23T11:22:29.074Z,1.95
2023-05-23T11:24:20.121Z,2.55
2023-05-23T11:26:33.646Z,2.40
2023-05-23T11:28:24.749Z,2.22
2023-05-23T11:30:18.219Z,1.83
2023-05-23T11:32:17.412Z,2.22
2023-05-23T11:34:08.986Z,2.47
2023-05-23T11:35:59.987Z,1.63
2023-05-23T11:37:51.215Z,2.20
2023-05-23T11:39:42.510Z,2.28
2023-05-23T11:41:36.084Z,2.13
2023-05-23T11:43:26.881Z,3.15
2023-05-23T11:45:21.280Z,2.17
2023-05-23T11:47:12.426Z,1.77
2023-05-23T11:49:03.364Z,2.13
2023-05-23T11:50:54.880Z,2.00
2023-05-23T11:52:46.882Z,2.13
2023-05-23T11:54:41.714Z,2.10
2023-05-23T11:56:39.923Z,2.13
2023-05-23T11:58:39.349Z,2.20
2023-05-23T12:00:30.670Z,2.42
2023-05-23T12:02:22.289Z,1.80
2023-05-23T12:04:13.778Z,1.98
2023-05-23T12:06:05.005Z,2.30
2023-05-23T12:07:56.107Z,1.60
2023-05-23T12:09:47.276Z,1.77
2023-05-23T12:11:39.622Z,3.17
2023-05-23T12:13:31.179Z,2.55
2023-05-23T12:15:27.285Z,2.00
2023-05-23T12:17:18.545Z,2.25
2023-05-23T12:19:09.714Z,1.52
2023-05-23T12:21:05.542Z,1.85
2023-05-23T12:22:57.598Z,1.65
2023-05-23T12:24:48.658Z,1.85
2023-05-23T12:26:51.515Z,1.95
2023-05-23T12:28:45.602Z,1.67
2023-05-23T12:30:45.920Z,1.73
2023-05-23T12:32:41.890Z,1.23
2023-05-23T12:34:33.227Z,1.77
2023-05-23T12:36:31.743Z,1.40
2023-05-23T12:38:22.993Z,2.00
2023-05-23T12:40:16.812Z,1.67
2023-05-23T12:42:10.061Z,1.90
2023-05-23T12:44:02.658Z,1.80
2023-05-23T12:45:54.582Z,1.55
2023-05-23T12:47:45.493Z,2.05
2023-05-23T12:49:37.076Z,1.50
2023-05-23T12:51:28.487Z,1.20
2023-05-23T12:53:19.249Z,1.67
2023-05-23T12:55:10.949Z,1.73
2023-05-23T12:57:01.956Z,1.80
2023-05-23T12:58:53.245Z,1.27
2023-05-23T13:00:43.948Z,1.80
2023-05-23T13:02:35.611Z,1.80
2023-05-23T13:04:27.597Z,1.70
2023-05-23T13:06:19.618Z,1.45
2023-05-23T13:08:11.490Z,1.50
2023-05-23T13:10:03.202Z,1.80
2023-05-23T13:11:55.309Z,1.90
2023-05-23T13:13:47.170Z,1.67
2023-05-23T13:15:38.304Z,2.08
2023-05-23T13:17:29.205Z,1.10
2023-05-23T13:19:20.694Z,1.77
2023-05-23T13:21:11.655Z,1.80
2023-05-23T13:23:02.599Z,1.98
2023-05-23T13:24:53.530Z,1.73
2023-05-23T13:26:44.501Z,1.70
2023-05-23T13:28:35.843Z,1.45
2023-05-23T13:30:27.152Z,1.73
2023-05-23T13:32:20.611Z,1.83
2023-05-23T13:34:14.327Z,1.92
2023-05-23T13:36:13.063Z,1.70
2023-05-23T13:38:26.064Z,2.00
2023-05-23T13:40:28.664Z,1.80
2023-05-23T13:42:20.470Z,2.10
2023-05-23T13:44:14.733Z,1.90
2023-05-23T13:46:08.667Z,1.55
2023-05-23T13:48:00.544Z,1.65
2023-05-23T13:49:51.510Z,1.63
2023-05-23T13:51:44.475Z,1.80
2023-05-23T13:53:35.457Z,2.00
2023-05-23T13:55:26.792Z,1.80
2023-05-23T13:57:24.084Z,1.45
2023-05-23T13:59:21.517Z,2.08
2023-05-23T14:01:16.822Z,1.85
2023-05-23T14:03:11.823Z,1.55
2023-05-23T14:05:05.005Z,1.50
2023-05-23T14:07:06.404Z,1.42
2023-05-23T14:08:57.865Z,1.85
2023-05-23T14:10:55.192Z,1.48
2023-05-23T14:12:45.997Z,1.63
2023-05-23T14:14:52.676Z,1.95
2023-05-23T14:16:53.854Z,1.92
2023-05-23T14:21:18.500Z,2.03
2023-05-23T14:23:23.202Z,1.77
2023-05-23T14:25:18.237Z,1.65
2023-05-23T14:27:15.077Z,2.08
2023-05-23T14:29:06.556Z,1.60
2023-05-23T14:30:57.714Z,1.98
2023-05-23T14:32:52.823Z,1.67
2023-05-23T14:34:43.919Z,2.15
2023-05-23T14:36:38.827Z,1.58
2023-05-23T14:38:33.797Z,1.80
2023-05-23T14:40:25.437Z,2.65
2023-05-23T14:42:20.174Z,2.10
2023-05-23T14:44:14.924Z,2.40
2023-05-23T14:46:10.056Z,1.90
2023-05-23T14:48:01.136Z,1.90
2023-05-23T14:49:52.247Z,2.13
2023-05-23T14:51:48.919Z,2.40
2023-05-23T14:53:41.352Z,2.05
2023-05-23T14:55:32.666Z,2.80
2023-05-23T14:57:24.016Z,2.85
2023-05-23T14:59:24.159Z,2.38
2023-05-23T15:01:15.518Z,2.55
2023-05-23T15:03:11.925Z,2.35
2023-05-23T15:05:03.978Z,2.33
2023-05-23T15:06:55.450Z,2.10
2023-05-23T15:08:46.875Z,2.28
2023-05-23T15:10:38.447Z,2.33
2023-05-23T15:12:29.894Z,2.38
2023-05-23T15:14:21.131Z,2.20
2023-05-23T15:16:12.159Z,3.05
2023-05-23T15:18:04.242Z,2.70
2023-05-23T15:19:57.122Z,1.73
2023-05-23T15:21:51.095Z,1.98
2023-05-23T15:23:42.643Z,3.00
2023-05-23T15:25:47.934Z,2.65
2023-05-23T15:27:40.212Z,2.78
2023-05-23T15:29:32.766Z,2.38
2023-05-23T15:31:24.016Z,2.88
2023-05-23T15:33:14.728Z,2.20
2023-05-23T15:35:10.376Z,2.00
2023-05-23T15:37:02.341Z,4.03
2023-05-23T15:38:53.651Z,2.33
2023-05-23T15:40:45.152Z,2.85
2023-05-23T15:42:42.435Z,2.70
2023-05-23T15:44:33.449Z,2.47
2023-05-23T15:46:24.542Z,3.00
2023-05-23T15:48:15.527Z,2.22
2023-05-23T15:50:08.764Z,1.90
2023-05-23T15:51:59.948Z,2.58
2023-05-23T15:55:44.617Z,2.55
2023-05-23T15:57:35.624Z,2.83
2023-05-23T15:59:28.655Z,2.80
2023-05-23T16:01:19.876Z,3.40
2023-05-23T16:03:11.018Z,2.47
2023-05-23T16:05:05.170Z,2.45
2023-05-23T16:06:56.182Z,2.60
2023-05-23T16:08:46.970Z,2.10
2023-05-23T16:10:40.379Z,2.75
2023-05-23T16:12:30.989Z,2.90
2023-05-23T16:14:22.995Z,2.03
2023-05-23T16:16:14.038Z,1.35
2023-05-23T16:18:06.640Z,3.08
2023-05-23T16:19:57.647Z,2.45
2023-05-23T16:21:48.691Z,2.72
2023-05-23T16:23:40.471Z,2.30
2023-05-23T16:25:31.298Z,2.05
2023-05-23T16:27:25.573Z,2.35
2023-05-23T16:29:16.277Z,2.47
2023-05-23T16:31:07.572Z,1.67
2023-05-23T16:32:58.996Z,2.20
2023-05-23T16:34:53.489Z,2.38
2023-05-23T16:36:46.170Z,3.42
2023-05-23T16:38:40.089Z,2.88
2023-05-23T16:40:31.388Z,2.90
2023-05-23T16:42:23.485Z,2.08
2023-05-23T16:44:14.490Z,2.90
2023-05-23T16:46:05.959Z,2.40
2023-05-23T16:48:00.174Z,2.55
2023-05-23T16:49:50.751Z,2.40
2023-05-23T16:51:41.841Z,2.00
2023-05-23T16:53:33.427Z,2.20
2023-05-23T16:55:24.271Z,2.45
2023-05-23T16:57:15.396Z,2.60
2023-05-23T16:59:06.565Z,2.92
2023-05-23T17:01:01.318Z,2.50
2023-05-23T17:02:52.772Z,3.08
2023-05-23T17:04:44.003Z,3.00
2023-05-23T17:06:35.479Z,3.00
2023-05-23T17:08:26.086Z,2.17
2023-05-23T17:10:20.105Z,2.90
2023-05-23T17:12:14.943Z,2.97
2023-05-23T17:14:06.850Z,3.22
2023-05-23T17:15:58.175Z,2.50
2023-05-23T17:17:49.275Z,2.92
2023-05-23T17:20:00.347Z,2.78
2023-05-23T17:21:51.282Z,2.78
2023-05-23T17:23:42.290Z,2.88
2023-05-23T17:25:33.329Z,2.30
2023-05-23T17:27:24.575Z,2.33
2023-05-23T17:29:15.543Z,2.47
2023-05-23T17:31:11.534Z,2.30
2023-05-23T17:33:02.686Z,2.05
2023-05-23T17:34:53.667Z,1.80
2023-05-23T17:36:48.209Z,2.80
2023-05-23T17:38:39.689Z,3.03
2023-05-23T17:40:30.919Z,2.67
2023-05-23T17:42:22.342Z,2.83
2023-05-23T17:44:16.594Z,2.33
2023-05-23T17:46:10.695Z,4.20
2023-05-23T17:48:01.398Z,3.33
2023-05-23T17:49:52.394Z,2.63
2023-05-23T17:51:43.178Z,2.20
2023-05-23T17:53:34.845Z,1.75
2023-05-23T17:55:26.418Z,2.33
2023-05-23T17:57:17.480Z,2.00
2023-05-23T17:59:09.217Z,3.15
2023-05-23T18:01:00.268Z,2.20
2023-05-23T18:02:51.947Z,2.00
2023-05-23T18:04:42.964Z,1.63
2023-05-23T18:06:34.085Z,1.67
2023-05-23T18:08:26.498Z,1.95
2023-05-23T18:10:17.628Z,2.45
2023-05-23T18:12:13.389Z,1.58
2023-05-23T18:14:04.318Z,2.28
2023-05-23T18:15:55.082Z,2.08
2023-05-23T18:17:49.684Z,1.83
2023-05-23T18:19:41.504Z,2.00
2023-05-23T18:21:33.230Z,1.98
2023-05-23T18:23:24.202Z,2.97
2023-05-23T18:25:15.327Z,3.05
2023-05-23T18:27:08.532Z,2.05
2023-05-23T18:29:00.178Z,2.40
2023-05-23T18:30:51.315Z,2.00
2023-05-23T18:32:43.193Z,2.03
2023-05-23T18:34:36.056Z,2.45
2023-05-23T18:36:27.485Z,1.92
2023-05-23T18:38:18.307Z,2.08
2023-05-23T18:40:10.311Z,2.05
2023-05-23T18:42:00.834Z,2.50
2023-05-23T18:43:51.844Z,2.38
2023-05-23T18:45:44.054Z,2.38
2023-05-23T18:47:35.827Z,2.00
2023-05-23T18:49:26.958Z,2.35
2023-05-23T18:51:18.208Z,1.90
2023-05-23T18:53:09.406Z,1.80
2023-05-23T18:55:00.981Z,2.50
2023-05-23T18:56:52.839Z,2.67
2023-05-23T18:58:48.358Z,2.45
2023-05-23T19:00:39.455Z,2.53
2023-05-23T19:02:34.620Z,2.22
2023-05-23T19:04:26.647Z,2.20
2023-05-23T19:06:17.872Z,2.55
2023-05-23T19:08:13.443Z,1.65
2023-05-23T19:10:06.758Z,1.52
2023-05-23T19:11:59.665Z,2.05
2023-05-23T19:13:50.749Z,2.20
2023-05-23T19:15:42.012Z,1.90
2023-05-23T19:17:32.924Z,1.83
2023-05-23T19:19:24.162Z,2.53
2023-05-23T19:21:15.104Z,1.30
2023-05-23T19:23:07.410Z,1.60
2023-05-23T19:25:00.160Z,2.30
2023-05-23T19:26:51.005Z,2.10
2023-05-23T19:28:42.141Z,1.98
2023-05-23T19:30:33.170Z,2.05
2023-05-23T19:32:23.860Z,2.20
2023-05-23T19:34:15.151Z,2.00
2023-05-23T19:36:11.345Z,1.92
2023-05-23T19:38:02.272Z,2.17
2023-05-23T19:39:53.270Z,2.03
2023-05-23T19:41:44.692Z,2.15
2023-05-23T19:43:35.703Z,2.30
2023-05-23T19:45:26.788Z,2.10
2023-05-23T19:47:17.766Z,1.75
2023-05-23T19:49:08.835Z,2.70
2023-05-23T19:50:59.705Z,1.90
2023-05-23T19:52:50.596Z,2.47
2023-05-23T19:54:42.097Z,2.10
2023-05-23T19:56:32.974Z,2.22
2023-05-23T19:58:23.821Z,2.80
2023-05-23T20:00:15.334Z,2.35
2023-05-23T20:02:10.090Z,2.33
2023-05-23T20:04:01.414Z,2.47
2023-05-23T20:05:52.645Z,2.60
2023-05-23T20:07:43.298Z,2.30
2023-05-23T20:09:34.550Z,2.78
2023-05-23T20:11:25.597Z,2.55
2023-05-23T20:13:16.597Z,2.70
2023-05-23T20:15:12.565Z,2.17
2023-05-23T20:17:03.794Z,2.80
2023-05-23T20:18:54.909Z,2.75
2023-05-23T20:20:45.741Z,2.70
2023-05-23T20:22:37.058Z,2.30
2023-05-23T20:24:28.216Z,2.47
2023-05-23T20:26:18.988Z,3.08
2023-05-23T20:28:10.106Z,3.13
2023-05-23T20:30:04.590Z,2.90
2023-05-23T20:31:55.538Z,2.53
2023-05-23T20:33:46.958Z,2.55
2023-05-23T20:35:38.042Z,2.88
2023-05-23T20:37:29.133Z,2.53
2023-05-23T20:39:21.887Z,2.72
2023-05-23T20:41:12.810Z,3.42
2023-05-23T20:43:03.640Z,2.83
2023-05-23T20:44:54.967Z,2.75
2023-05-23T20:46:51.985Z,2.70
2023-05-23T20:48:42.903Z,3.03
2023-05-23T20:50:33.811Z,3.38
2023-05-23T20:52:24.869Z,3.35
2023-05-23T20:54:16.703Z,3.25
2023-05-23T20:56:11.109Z,2.53
2023-05-23T20:58:02.070Z,3.67
2023-05-23T20:59:53.232Z,2.78
2023-05-23T21:01:44.676Z,3.42
2023-05-23T21:03:35.733Z,3.00
2023-05-23T21:05:32.000Z,3.78
2023-05-23T21:07:26.817Z,3.63
2023-05-23T21:09:20.999Z,3.85
2023-05-23T21:11:15.374Z,4.35
2023-05-23T21:13:08.530Z,3.60
2023-05-23T21:14:59.446Z,3.80
2023-05-23T21:16:50.650Z,3.67
2023-05-23T21:18:44.710Z,3.85
2023-05-23T21:20:35.762Z,4.30
2023-05-23T21:22:26.717Z,4.55
2023-05-23T21:24:17.544Z,4.47
2023-05-23T21:26:09.530Z,3.92
2023-05-23T21:28:06.276Z,3.75
2023-05-23T21:29:57.445Z,3.67
2023-05-23T21:31:48.501Z,4.57
2023-05-23T21:33:39.464Z,3.95
2023-05-23T21:35:30.540Z,4.13
2023-05-23T21:37:21.449Z,5.00
2023-05-23T21:39:15.845Z,4.82
2023-05-23T21:41:07.631Z,4.40
2023-05-23T21:42:58.813Z,5.05
2023-05-23T21:44:49.574Z,5.43
2023-05-23T21:46:42.217Z,4.32
2023-05-23T21:48:33.235Z,4.13
2023-05-23T21:50:24.312Z,4.15
2023-05-23T21:52:25.175Z,4.90
2023-05-23T21:54:32.165Z,4.80
2023-05-23T21:56:24.610Z,4.70
2023-05-23T21:58:29.043Z,4.68
2023-05-23T22:00:27.239Z,5.07
2023-05-23T22:02:27.723Z,4.53
2023-05-23T22:04:27.133Z,4.70
2023-05-23T22:06:29.480Z,3.80
2023-05-23T22:08:26.525Z,3.65
2023-05-23T22:10:20.931Z,4.40
2023-05-23T22:12:13.025Z,3.42
2023-05-23T22:14:14.571Z,3.72
2023-05-23T22:16:09.413Z,4.50
2023-05-23T22:18:01.290Z,4.65
2023-05-23T22:19:53.612Z,3.78
2023-05-23T22:21:48.237Z,4.30
2023-05-23T22:23:39.868Z,3.97
2023-05-23T22:25:34.953Z,4.45
2023-05-23T22:27:25.773Z,4.07
2023-05-23T22:29:16.700Z,4.32
2023-05-23T22:31:12.869Z,4.32
2023-05-23T22:33:04.082Z,4.43
2023-05-23T22:38:13.973Z,4.10
2023-05-23T22:40:06.939Z,3.20
2023-05-23T22:41:57.939Z,4.38
2023-05-23T22:43:51.793Z,4.05
2023-05-23T22:45:42.767Z,4.53
2023-05-23T22:47:40.450Z,4.43
2023-05-23T22:49:31.650Z,3.78
2023-05-23T22:51:22.481Z,4.03
2023-05-23T22:53:14.164Z,4.03
2023-05-23T22:55:16.634Z,4.63
2023-05-23T22:57:10.766Z,4.32
2023-05-23T22:59:13.327Z,3.65
2023-05-23T23:01:08.341Z,4.78
2023-05-23T23:03:03.120Z,4.20
2023-05-23T23:05:01.383Z,2.92
2023-05-23T23:06:53.198Z,4.65
2023-05-23T23:08:47.671Z,4.75
2023-05-23T23:10:38.782Z,4.65
2023-05-23T23:12:32.757Z,4.47
2023-05-23T23:14:23.418Z,4.65
2023-05-23T23:16:14.058Z,5.22
2023-05-23T23:18:07.775Z,5.40
2023-05-23T23:19:58.652Z,3.83
2023-05-23T23:21:49.185Z,4.00
2023-05-23T23:23:40.307Z,5.03
2023-05-23T23:25:34.543Z,4.93
2023-05-23T23:27:27.663Z,5.57
2023-05-23T23:29:22.577Z,4.80
2023-05-23T23:31:28.156Z,4.88
2023-05-23T23:34:04.445Z,3.72
2023-05-23T23:35:58.793Z,3.78
2023-05-23T23:37:51.101Z,4.45
2023-05-23T23:39:45.643Z,5.70
2023-05-23T23:41:36.564Z,4.70
2023-05-23T23:43:27.675Z,4.18
2023-05-23T23:45:22.421Z,4.05
2023-05-23T23:47:16.500Z,4.18
2023-05-23T23:49:20.506Z,4.57
2023-05-23T23:51:31.492Z,4.90
2023-05-23T23:53:24.140Z,4.75
2023-05-23T23:55:16.001Z,5.25
2023-05-23T23:57:17.936Z,5.28
2023-05-23T23:59:12.277Z,4.43
